Time;durP1;ratioP1;P1;durP2;ratioP2;P2;SDS_P1;SDS_P2;PMS_P1;PMS_P2;Temp;Humidity;BMP_temperature;BMP_pressure;BME280_temperature;BME280_humidity;BME280_pressure;Samples;Min_cycle;Max_cycle;Signal;HPM_P1;HPM_P2
2022/03/16 00:02:24;;;;;;;16.62;8.00;;;;;;;9.24;39.92;100930.62;5590407;31;34551;-62
2022/03/16 00:05:27;;;;;;;17.90;8.25;;;;;;;9.19;39.89;100928.41;5590424;31;34291;-63
2022/03/16 00:08:31;;;;;;;14.20;8.00;;;;;;;9.08;41.44;100905.59;5590636;31;33823;-62
2022/03/16 00:11:34;;;;;;;16.55;9.18;;;;;;;9.04;40.97;100884.87;5590463;31;34601;-63
2022/03/16 00:14:37;;;;;;;17.15;8.20;;;;;;;9.00;42.06;100870.28;5590229;31;34287;-63
2022/03/16 00:17:40;;;;;;;21.85;9.05;;;;;;;8.91;43.28;100871.94;5576655;31;34521;-62
2022/03/16 00:20:42;;;;;;;18.08;8.23;;;;;;;8.90;43.13;100865.00;5590280;31;35193;-63
2022/03/16 00:23:45;;;;;;;17.00;8.43;;;;;;;8.93;42.96;100866.53;5590254;31;33899;-63
2022/03/16 00:26:48;;;;;;;16.75;8.98;;;;;;;8.88;42.94;100874.06;5589990;31;33896;-62
2022/03/16 00:29:51;;;;;;;16.33;8.80;;;;;;;8.86;43.89;100870.75;5590182;31;34613;-63
2022/03/16 00:32:54;;;;;;;20.92;9.82;;;;;;;8.83;43.23;100857.78;5590159;31;33956;-62
2022/03/16 00:35:58;;;;;;;18.00;10.40;;;;;;;8.78;43.49;100852.94;5590162;31;34588;-63
2022/03/16 00:39:02;;;;;;;25.62;9.95;;;;;;;8.82;43.13;100862.25;5590171;31;33832;-63
2022/03/16 00:42:05;;;;;;;18.80;9.50;;;;;;;8.79;43.58;100854.59;5576415;31;33915;-63
2022/03/16 00:45:09;;;;;;;16.70;9.35;;;;;;;8.75;44.10;100845.28;5563802;31;34476;-63
2022/03/16 00:48:12;;;;;;;19.50;9.38;;;;;;;8.67;47.47;100845.16;5590071;31;33886;-62
2022/03/16 00:51:15;;;;;;;18.92;9.43;;;;;;;8.49;48.69;100839.78;5590034;31;33843;-62
2022/03/16 00:54:18;;;;;;;19.85;9.85;;;;;;;8.41;49.30;100844.97;5590032;31;34561;-62
2022/03/16 00:57:21;;;;;;;22.77;10.50;;;;;;;8.33;50.22;100830.81;5589964;31;33984;-62
2022/03/16 01:00:24;;;;;;;17.25;9.07;;;;;;;8.23;54.04;100839.53;5589878;31;34099;-62
2022/03/16 01:03:28;;;;;;;19.98;10.70;;;;;;;8.27;53.58;100835.66;5589950;31;34169;-63
2022/03/16 01:06:31;;;;;;;20.60;10.55;;;;;;;8.30;52.48;100831.91;5590211;31;34485;-62
2022/03/16 01:09:34;;;;;;;21.87;10.85;;;;;;;8.30;52.17;100834.53;5589833;31;34610;-62
2022/03/16 01:12:37;;;;;;;20.85;10.35;;;;;;;8.38;52.48;100832.00;5590053;31;33845;-62
2022/03/16 01:15:40;;;;;;;23.85;10.90;;;;;;;8.31;53.33;100830.94;5590084;31;34236;-62
2022/03/16 01:18:43;;;;;;;22.30;10.63;;;;;;;8.21;54.08;100828.28;5575946;31;33773;-62
2022/03/16 01:21:48;;;;;;;19.48;9.82;;;;;;;8.25;54.44;100828.81;5589800;31;34253;-62
2022/03/16 01:24:50;;;;;;;22.48;10.10;;;;;;;8.22;54.37;100829.94;5576015;31;35206;-62
2022/03/16 01:27:54;;;;;;;21.05;10.40;;;;;;;8.15;54.53;100828.00;5589602;31;33928;-63
2022/03/16 01:30:59;;;;;;;19.35;10.63;;;;;;;8.20;55.95;100841.63;5575970;31;33956;-62
2022/03/16 01:34:04;;;;;;;18.90;10.82;;;;;;;8.13;54.73;100849.25;5589634;31;34531;-62
2022/03/16 01:37:06;;;;;;;29.12;10.48;;;;;;;8.30;54.64;100853.06;5589648;31;33893;-62
2022/03/16 01:40:10;;;;;;;23.70;10.75;;;;;;;8.19;56.05;100854.00;5589693;31;33846;-62
2022/03/16 01:43:13;;;;;;;22.52;10.23;;;;;;;8.12;57.71;100866.12;5589529;31;33909;-63
2022/03/16 01:46:16;;;;;;;24.92;11.35;;;;;;;8.11;56.90;100877.66;5589624;31;34225;-63
2022/03/16 01:49:19;;;;;;;21.65;10.57;;;;;;;8.09;57.86;100884.87;5589530;31;33319;-62
2022/03/16 01:52:24;;;;;;;21.77;10.93;;;;;;;8.07;57.91;100876.28;5589335;31;33931;-62
2022/03/16 01:55:27;;;;;;;20.33;9.93;;;;;;;8.08;58.42;100888.53;5575651;31;33930;-62
2022/03/16 01:58:29;;;;;;;21.10;10.60;;;;;;;8.16;58.78;100893.94;5589167;31;34589;-62
2022/03/16 02:01:35;;;;;;;21.37;11.10;;;;;;;8.04;58.95;100873.06;5575898;31;33942;-62
2022/03/16 02:04:39;;;;;;;26.85;11.60;;;;;;;8.06;58.57;100879.88;5589424;31;34650;-62
2022/03/16 02:07:43;;;;;;;20.05;10.68;;;;;;;7.98;59.64;100869.19;5589643;31;33941;-62
2022/03/16 02:10:46;;;;;;;22.33;10.88;;;;;;;7.94;63.10;100872.25;5589266;31;34569;-62
2022/03/16 02:13:50;;;;;;;18.92;10.93;;;;;;;7.83;64.45;100881.97;5589134;31;33945;-62
2022/03/16 02:16:55;;;;;;;23.10;11.70;;;;;;;7.77;62.62;100860.56;5589144;31;34495;-63
2022/03/16 02:19:58;;;;;;;22.58;11.07;;;;;;;7.77;64.83;100857.91;5589107;31;34283;-62
2022/03/16 02:23:06;;;;;;;21.02;11.25;;;;;;;7.73;63.88;100848.59;5588985;31;34297;-63
2022/03/16 02:26:14;;;;;;;27.92;11.50;;;;;;;7.80;65.51;100828.56;5589292;31;33753;-64
2022/03/16 02:29:17;;;;;;;23.77;11.68;;;;;;;7.81;66.69;100836.38;5588937;31;33899;-63
2022/03/16 02:32:20;;;;;;;26.98;12.07;;;;;;;7.91;63.62;100825.78;5588923;31;33902;-63
2022/03/16 02:35:23;;;;;;;22.75;11.18;;;;;;;8.04;63.99;100825.50;5588848;31;33857;-63
2022/03/16 02:38:25;;;;;;;24.92;10.82;;;;;;;7.97;65.53;100822.59;5588895;31;33902;-62
2022/03/16 02:41:28;;;;;;;20.05;10.82;;;;;;;7.89;65.32;100809.25;5589224;31;33873;-63
2022/03/16 02:44:31;;;;;;;23.67;11.23;;;;;;;7.85;65.75;100806.06;5588587;31;34033;-63
2022/03/16 02:47:34;;;;;;;26.65;11.38;;;;;;;7.77;66.41;100811.22;5588617;31;33860;-63
2022/03/16 02:50:38;;;;;;;19.37;11.27;;;;;;;7.69;66.48;100792.59;5588735;31;33936;-63
2022/03/16 02:53:41;;;;;;;19.02;11.02;;;;;;;7.67;67.73;100783.97;5588473;31;33915;-63
2022/03/16 02:56:46;;;;;;;19.12;11.52;;;;;;;7.61;70.64;100781.88;5588437;31;34561;-63
2022/03/16 02:59:48;;;;;;;23.23;12.18;;;;;;;7.58;72.50;100776.88;5588414;31;33827;-63
2022/03/16 03:02:51;;;;;;;19.73;11.38;;;;;;;7.61;73.44;100779.22;5588288;31;34532;-63
2022/03/16 03:05:54;;;;;;;18.80;10.90;;;;;;;7.63;72.83;100773.81;5588321;31;34346;-62
2022/03/16 03:08:57;;;;;;;22.75;11.43;;;;;;;7.64;72.58;100764.94;5588586;31;33829;-63
2022/03/16 03:12:01;;;;;;;23.80;11.85;;;;;;;7.67;68.81;100769.91;5590720;31;33889;-62
2022/03/16 03:15:05;;;;;;;23.17;11.98;;;;;;;7.63;69.47;100774.66;5591173;31;33827;-63
2022/03/16 03:18:10;;;;;;;27.62;13.23;;;;;;;7.51;70.17;100759.06;5590854;31;34387;-63
2022/03/16 03:21:13;;;;;;;24.80;12.00;;;;;;;7.37;73.73;100740.03;5590865;31;34723;-63
2022/03/16 03:24:16;;;;;;;25.62;12.35;;;;;;;7.31;72.49;100730.03;5590677;31;33870;-62
2022/03/16 03:27:19;;;;;;;23.17;13.13;;;;;;;7.26;70.21;100721.69;5590550;31;34518;-63
2022/03/16 03:30:21;;;;;;;27.73;13.23;;;;;;;7.23;70.29;100716.72;5590732;31;33908;-62
2022/03/16 03:33:24;;;;;;;25.67;12.90;;;;;;;7.19;73.39;100709.19;5590632;31;33963;-63
2022/03/16 03:36:27;;;;;;;22.52;13.00;;;;;;;7.14;75.13;100706.16;5590712;31;34570;-62
2022/03/16 03:39:30;;;;;;;30.77;14.27;;;;;;;7.15;73.92;100692.00;5590654;31;33877;-62
2022/03/16 03:42:33;;;;;;;39.25;15.65;;;;;;;7.20;73.11;100682.69;5576813;31;33914;-62
2022/03/16 03:45:36;;;;;;;44.40;17.92;;;;;;;7.28;72.17;100674.91;5590989;31;34236;-62
2022/03/16 03:48:38;;;;;;;37.33;18.90;;;;;;;7.35;72.07;100677.81;5590556;31;34542;-63
2022/03/16 03:51:41;;;;;;;39.00;19.50;;;;;;;7.37;71.68;100673.22;5590500;31;34447;-63
2022/03/16 03:54:44;;;;;;;37.08;16.95;;;;;;;7.38;71.80;100649.34;5590560;31;35201;-63
2022/03/16 03:57:46;;;;;;;30.10;15.90;;;;;;;7.38;71.27;100645.88;5590442;31;33867;-63
2022/03/16 04:00:49;;;;;;;27.98;14.90;;;;;;;7.40;70.69;100651.84;5590446;31;33847;-62
2022/03/16 04:03:52;;;;;;;26.85;14.40;;;;;;;7.34;70.30;100636.56;5576676;31;33807;-62
2022/03/16 04:06:54;;;;;;;27.98;14.52;;;;;;;7.33;70.14;100646.28;5576699;31;34180;-62
2022/03/16 04:09:57;;;;;;;23.80;13.90;;;;;;;7.27;70.61;100646.84;5590480;31;33817;-62
2022/03/16 04:13:00;;;;;;;25.45;13.88;;;;;;;7.32;70.49;100627.94;5590380;31;34594;-63
2022/03/16 04:16:03;;;;;;;27.98;14.57;;;;;;;7.27;71.53;100633.66;5576578;31;34368;-63
2022/03/16 04:19:06;;;;;;;33.17;13.70;;;;;;;7.30;74.23;100643.94;5590530;31;34380;-62
2022/03/16 04:22:11;;;;;;;31.77;13.62;;;;;;;7.25;72.94;100635.62;5576092;31;34292;-62
2022/03/16 04:25:14;;;;;;;25.88;14.07;;;;;;;7.18;73.88;100628.38;5590149;31;34490;-62
2022/03/16 04:28:17;;;;;;;26.45;14.48;;;;;;;7.03;78.09;100635.88;5590004;31;33880;-62
2022/03/16 04:31:21;;;;;;;28.33;13.95;;;;;;;6.87;78.02;100614.50;5590211;31;34558;-62
2022/03/16 04:34:24;;;;;;;31.98;13.65;;;;;;;6.81;77.51;100599.25;5590002;31;34551;-63
2022/03/16 04:37:27;;;;;;;26.15;14.23;;;;;;;6.75;77.85;100605.88;5590145;31;34532;-62
2022/03/16 04:40:31;;;;;;;31.73;14.23;;;;;;;6.69;77.92;100627.53;5576441;31;33918;-62
2022/03/16 04:43:34;;;;;;;26.83;14.82;;;;;;;6.77;77.28;100630.34;5590326;31;33868;-62
2022/03/16 04:46:37;;;;;;;24.63;13.85;;;;;;;6.85;76.57;100632.28;5590004;31;33931;-62
2022/03/16 04:49:40;;;;;;;28.02;14.38;;;;;;;6.90;76.16;100632.69;5589978;31;34005;-62
2022/03/16 04:52:47;;;;;;;26.35;14.93;;;;;;;6.95;75.79;100633.94;5589885;31;34616;-63
2022/03/16 04:55:49;;;;;;;30.60;14.73;;;;;;;7.02;77.06;100641.31;5589975;31;34220;-63
2022/03/16 04:58:52;;;;;;;25.20;13.85;;;;;;;7.02;77.40;100654.50;5589930;31;33862;-63
2022/03/16 05:01:55;;;;;;;25.77;14.18;;;;;;;7.15;74.34;100655.88;5589937;31;34612;-63
2022/03/16 05:04:57;;;;;;;30.83;14.43;;;;;;;7.06;74.27;100655.88;5589934;31;33955;-63
2022/03/16 05:08:00;;;;;;;26.12;13.82;;;;;;;7.05;75.34;100654.22;5590249;31;35141;-64
2022/03/16 05:11:04;;;;;;;30.35;14.23;;;;;;;7.18;71.99;100646.84;5589950;31;33937;-63
2022/03/16 05:14:07;;;;;;;26.00;13.77;;;;;;;7.13;73.41;100660.47;5589882;31;34577;-63
2022/03/16 05:17:10;;;;;;;26.12;13.80;;;;;;;7.03;73.46;100648.22;5589820;31;33998;-63
2022/03/16 05:20:14;;;;;;;25.90;13.50;;;;;;;7.02;74.43;100649.22;5589701;31;34485;-63
2022/03/16 05:23:17;;;;;;;23.75;13.68;;;;;;;7.07;73.02;100652.28;5589699;31;33806;-64
2022/03/16 05:26:20;;;;;;;23.67;13.98;;;;;;;7.07;74.00;100668.91;5589508;31;34421;-64
2022/03/16 05:29:23;;;;;;;23.67;13.45;;;;;;;7.13;74.30;100664.91;5589645;31;34628;-64
2022/03/16 05:32:25;;;;;;;26.15;14.27;;;;;;;7.13;74.35;100651.72;5575192;31;33812;-64
2022/03/16 05:35:30;;;;;;;31.85;14.05;;;;;;;7.18;75.28;100660.03;5589593;31;33885;-63
2022/03/16 05:38:33;;;;;;;28.40;14.15;;;;;;;7.18;75.72;100666.16;5589602;31;34656;-63
2022/03/16 05:41:35;;;;;;;22.58;13.27;;;;;;;7.21;77.86;100691.44;5589397;31;34670;-64
2022/03/16 05:44:38;;;;;;;25.62;13.60;;;;;;;7.15;77.93;100698.09;5589561;31;34526;-64
2022/03/16 05:47:41;;;;;;;25.15;13.65;;;;;;;6.99;78.61;100706.53;5589417;31;33963;-64
2022/03/16 05:50:47;;;;;;;26.35;13.93;;;;;;;6.73;81.16;100702.75;5589541;31;34188;-64
2022/03/16 05:53:49;;;;;;;25.50;13.68;;;;;;;6.54;83.58;100716.69;5575636;31;33995;-65
2022/03/16 05:56:52;;;;;;;28.12;14.13;;;;;;;6.36;87.97;100714.84;5575582;31;35083;-64
2022/03/16 05:59:55;;;;;;;26.25;13.65;;;;;;;6.37;91.02;100713.88;5589110;31;33891;-65
2022/03/16 06:02:58;;;;;;;24.40;14.05;;;;;;;6.44;93.51;100715.00;5589401;31;33843;-64
2022/03/16 06:06:02;;;;;;;28.50;14.38;;;;;;;6.63;93.74;100716.88;5589325;31;33883;-65
2022/03/16 06:09:05;;;;;;;25.37;14.68;;;;;;;6.52;95.42;100721.28;5589347;31;33912;-64
2022/03/16 06:12:08;;;;;;;26.25;15.95;;;;;;;6.44;97.33;100715.84;5575081;31;34642;-65
2022/03/16 06:15:11;;;;;;;29.10;15.77;;;;;;;6.39;100.00;100723.28;5588989;31;33929;-67
2022/03/16 06:18:14;;;;;;;28.10;17.08;;;;;;;6.18;100.00;100725.16;5589148;31;34224;-67
2022/03/16 06:21:16;;;;;;;31.55;17.85;;;;;;;5.97;100.00;100725.19;5575736;31;33869;-66
2022/03/16 06:24:19;;;;;;;34.08;17.55;;;;;;;5.97;100.00;100726.97;5588974;31;33812;-67
2022/03/16 06:27:22;;;;;;;39.33;19.02;;;;;;;5.81;100.00;100730.03;5588715;31;33810;-67
2022/03/16 06:30:25;;;;;;;39.00;19.48;;;;;;;5.77;100.00;100725.16;5588816;31;34382;-66
2022/03/16 06:33:28;;;;;;;33.47;18.15;;;;;;;5.84;100.00;100739.47;5589077;31;33981;-65
2022/03/16 06:36:31;;;;;;;37.90;18.20;;;;;;;5.85;100.00;100741.16;5588902;31;33856;-66
2022/03/16 06:39:34;;;;;;;34.13;18.98;;;;;;;5.95;100.00;100731.56;5588449;31;33832;-65
2022/03/16 06:42:52;;;;;;;38.75;17.73;;;;;;;6.09;100.00;100729.41;5588949;31;34250;-65
2022/03/16 06:45:55;;;;;;;31.00;18.02;;;;;;;6.23;100.00;100735.31;5591191;31;33943;-66
2022/03/16 06:48:57;;;;;;;29.60;17.80;;;;;;;6.17;100.00;100746.34;5590774;31;33968;-66
2022/03/16 06:52:00;;;;;;;31.30;16.92;;;;;;;6.06;100.00;100742.84;5590224;31;33923;-65
2022/03/16 06:55:03;;;;;;;31.85;17.48;;;;;;;6.09;100.00;100734.69;5590499;31;34296;-65
2022/03/16 06:58:06;;;;;;;28.20;16.05;;;;;;;6.09;100.00;100739.13;5590763;31;34817;-65
2022/03/16 07:01:09;;;;;;;30.12;16.60;;;;;;;6.07;100.00;100743.66;5590656;31;33863;-66
2022/03/16 07:04:12;;;;;;;29.15;17.55;;;;;;;5.92;100.00;100737.91;5591021;31;34192;-65
2022/03/16 07:07:15;;;;;;;29.92;16.08;;;;;;;6.12;100.00;100742.31;5590569;31;34295;-66
2022/03/16 07:10:20;;;;;;;30.20;17.70;;;;;;;6.14;100.00;100750.09;5590512;31;34031;-65
2022/03/16 07:13:22;;;;;;;30.40;17.17;;;;;;;6.05;100.00;100746.41;5590862;31;33812;-65
2022/03/16 07:16:25;;;;;;;29.50;17.73;;;;;;;6.08;100.00;100753.25;5590624;31;34610;-65
2022/03/16 07:19:32;;;;;;;29.00;17.17;;;;;;;5.84;100.00;100771.06;5590633;31;33923;-65
2022/03/16 07:22:35;;;;;;;28.20;16.33;;;;;;;5.97;100.00;100763.84;5590134;31;34631;-64
2022/03/16 07:25:56;;;;;;;35.35;16.95;;;;;;;5.93;100.00;100768.53;5590521;31;34644;-65
2022/03/16 07:28:59;;;;;;;27.95;16.45;;;;;;;5.66;100.00;100765.56;5590376;31;34035;-65
2022/03/16 07:32:04;;;;;;;25.45;16.08;;;;;;;5.54;100.00;100770.00;5590639;31;33890;-65
2022/03/16 07:35:09;;;;;;;30.27;16.85;;;;;;;5.49;100.00;100763.47;5576549;31;34557;-64
2022/03/16 07:38:13;;;;;;;32.25;15.77;;;;;;;5.43;100.00;100749.00;5590304;31;35222;-65
2022/03/16 07:41:15;;;;;;;26.27;16.02;;;;;;;5.44;100.00;100774.34;5576534;31;34012;-65
2022/03/16 07:44:18;;;;;;;28.75;18.27;;;;;;;5.32;100.00;100772.75;5590491;31;34624;-66
2022/03/16 07:47:21;;;;;;;29.58;17.17;;;;;;;5.36;100.00;100775.94;5590086;31;33835;-66
2022/03/16 07:50:40;;;;;;;33.88;16.85;;;;;;;5.31;100.00;100791.28;5590462;31;33941;-64
2022/03/16 07:53:43;;;;;;;31.15;17.42;;;;;;;5.20;100.00;100795.59;5590554;31;34250;-66
2022/03/16 07:56:45;;;;;;;29.95;17.42;;;;;;;4.91;100.00;100794.44;5576553;31;34456;-66
2022/03/16 07:59:48;;;;;;;33.58;18.85;;;;;;;4.90;100.00;100800.66;5590335;31;34310;-66
2022/03/16 08:02:54;;;;;;;28.77;19.15;;;;;;;4.86;100.00;100804.50;5590349;31;33983;-66
2022/03/16 08:05:57;;;;;;;34.17;19.87;;;;;;;4.78;100.00;100805.12;5590200;31;34321;-66
2022/03/16 08:08:59;;;;;;;30.67;19.70;;;;;;;4.80;100.00;100800.56;5590620;31;33794;-67
2022/03/16 08:12:03;;;;;;;34.58;20.50;;;;;;;5.07;100.00;100802.81;5590014;31;34208;-66
2022/03/16 08:15:06;;;;;;;38.67;20.08;;;;;;;5.17;100.00;100798.50;5590360;31;34634;-66
2022/03/16 08:18:09;;;;;;;34.38;19.10;;;;;;;5.30;100.00;100794.84;5576320;31;34608;-66
2022/03/16 08:21:11;;;;;;;32.40;18.75;;;;;;;5.39;100.00;100802.84;5590156;31;33941;-66
2022/03/16 08:24:14;;;;;;;32.05;19.90;;;;;;;5.26;100.00;100810.06;5590115;31;33900;-66
2022/03/16 08:27:18;;;;;;;31.58;19.70;;;;;;;5.32;100.00;100808.72;5589949;31;33811;-67
2022/03/16 08:30:20;;;;;;;32.95;18.77;;;;;;;5.14;100.00;100809.22;5590074;31;34489;-67
2022/03/16 08:33:23;;;;;;;34.00;17.80;;;;;;;5.32;100.00;100819.25;5590424;31;34584;-66
2022/03/16 08:36:26;;;;;;;29.27;17.73;;;;;;;5.41;100.00;100810.63;5589856;31;34641;-66
2022/03/16 08:39:29;;;;;;;32.35;18.90;;;;;;;5.39;100.00;100813.37;5576360;31;34162;-66
2022/03/16 08:42:32;;;;;;;31.70;17.50;;;;;;;5.53;100.00;100815.72;5589867;31;34185;-66
2022/03/16 08:45:35;;;;;;;30.40;18.17;;;;;;;5.49;100.00;100827.44;5590229;31;33950;-67
2022/03/16 08:48:37;;;;;;;31.87;18.80;;;;;;;5.46;100.00;100821.59;5589877;31;34080;-66
2022/03/16 08:51:40;;;;;;;35.28;19.23;;;;;;;5.39;100.00;100837.03;5589863;31;34616;-65
2022/03/16 08:54:44;;;;;;;35.03;18.15;;;;;;;5.40;100.00;100841.34;5589737;31;33855;-66
2022/03/16 08:57:46;;;;;;;34.00;19.37;;;;;;;5.41;100.00;100845.66;5590193;31;35175;-65
2022/03/16 09:00:49;;;;;;;30.58;18.42;;;;;;;5.31;100.00;100865.78;5589825;31;35168;-67
2022/03/16 09:03:53;;;;;;;33.42;18.25;;;;;;;5.23;100.00;100865.53;5590120;31;34477;-66
2022/03/16 09:06:59;;;;;;;29.48;18.12;;;;;;;5.13;100.00;100869.88;5588910;31;33957;-66
2022/03/16 09:10:02;;;;;;;32.20;19.37;;;;;;;5.00;100.00;100869.97;5589856;31;33953;-65
2022/03/16 09:13:06;;;;;;;34.08;18.58;;;;;;;4.99;100.00;100876.19;5589865;31;33899;-66
2022/03/16 09:16:17;;;;;;;30.33;17.30;;;;;;;4.85;100.00;100875.59;5576402;31;34899;-66
2022/03/16 09:19:21;;;;;;;29.00;17.42;;;;;;;4.86;100.00;100879.88;5589728;31;34622;-65
2022/03/16 09:22:24;;;;;;;30.85;17.67;;;;;;;4.85;100.00;100883.47;5589788;31;33938;-65
2022/03/16 09:25:27;;;;;;;33.28;19.52;;;;;;;4.78;100.00;100878.72;5589967;31;34611;-66
2022/03/16 09:28:30;;;;;;;31.50;21.37;;;;;;;4.64;100.00;100878.94;5589317;31;33896;-66
2022/03/16 09:31:38;;;;;;;30.88;20.65;;;;;;;4.70;100.00;100891.59;5589639;31;33819;-66
2022/03/16 09:34:42;;;;;;;30.02;19.23;;;;;;;4.63;100.00;100890.41;5589204;31;33939;-66
2022/03/16 09:37:46;;;;;;;29.42;18.75;;;;;;;4.69;100.00;100905.69;5589313;31;34643;-65
2022/03/16 09:40:52;;;;;;;31.85;18.70;;;;;;;4.61;100.00;100899.34;5589636;31;34530;-66
2022/03/16 09:43:55;;;;;;;29.98;18.73;;;;;;;4.56;100.00;100906.72;5589351;31;34466;-66
2022/03/16 09:46:58;;;;;;;30.83;18.23;;;;;;;4.55;100.00;100908.50;5589280;31;34698;-66
2022/03/16 09:50:02;;;;;;;28.77;18.30;;;;;;;4.62;100.00;100916.78;5589434;31;34462;-66
2022/03/16 09:53:05;;;;;;;37.47;18.42;;;;;;;4.52;100.00;100913.19;5589358;31;34682;-66
2022/03/16 09:56:09;;;;;;;28.92;18.08;;;;;;;4.66;100.00;100924.31;5589151;31;34516;-65
2022/03/16 09:59:11;;;;;;;29.35;17.40;;;;;;;4.70;100.00;100923.12;5589357;31;33846;-66
2022/03/16 10:02:16;;;;;;;31.45;19.42;;;;;;;4.76;100.00;100925.28;5589317;31;35142;-66
2022/03/16 10:05:22;;;;;;;28.83;19.65;;;;;;;4.67;100.00;100931.25;5589281;31;33843;-66
2022/03/16 10:08:35;;;;;;;33.50;21.05;;;;;;;4.69;100.00;100931.16;5589494;31;33808;-65
2022/03/16 10:15:04;;;;;;;33.53;21.65;;;;;;;4.75;100.00;100925.41;5589146;31;33944;-65
2022/03/16 10:18:07;;;;;;;37.47;21.37;;;;;;;4.91;100.00;100930.31;5588968;31;34578;-66
2022/03/16 10:21:10;;;;;;;31.87;20.02;;;;;;;5.19;100.00;100929.84;5575166;31;34592;-65
2022/03/16 10:24:12;;;;;;;31.33;19.85;;;;;;;5.23;100.00;100934.75;5588892;31;33972;-66
2022/03/16 10:27:17;;;;;;;37.90;19.75;;;;;;;5.26;100.00;100931.06;5555958;31;829483;-66
2022/03/16 10:30:21;;;;;;;32.63;20.40;;;;;;;5.29;100.00;100938.69;5569476;32;33989;-66
2022/03/16 10:33:25;;;;;;;34.88;20.52;;;;;;;5.11;100.00;100934.88;5569176;32;34618;-65
2022/03/16 10:36:37;;;;;;;31.25;19.52;;;;;;;5.08;100.00;100940.38;5569192;32;34547;-65
2022/03/16 10:39:48;;;;;;;30.17;19.73;;;;;;;5.10;100.00;100935.84;5569150;32;34074;-65
2022/03/16 10:49:38;;;;;;;35.58;20.45;;;;;;;5.18;100.00;100942.16;5569062;32;34656;-65
2022/03/16 10:52:42;;;;;;;33.38;19.80;;;;;;;5.24;100.00;100946.94;5568715;32;34209;-66
2022/03/16 10:55:46;;;;;;;34.38;19.35;;;;;;;5.21;100.00;100951.63;5568606;32;33783;-65
2022/03/16 10:58:52;;;;;;;40.12;20.67;;;;;;;5.20;100.00;100949.94;5569182;32;34303;-65
2022/03/16 11:02:02;;;;;;;32.10;21.70;;;;;;;5.28;100.00;100962.50;5568622;32;35248;-66
2022/03/16 11:05:06;;;;;;;29.80;19.98;;;;;;;5.30;100.00;100961.44;5568518;32;34432;-65
2022/03/16 11:08:10;;;;;;;35.05;19.95;;;;;;;5.32;100.00;100959.53;5568586;32;33795;-65
2022/03/16 11:14:36;;;;;;;31.75;21.40;;;;;;;5.22;100.00;100972.56;5568351;32;33336;-65
2022/03/16 11:17:39;;;;;;;31.83;18.70;;;;;;;5.17;100.00;100984.38;5568267;32;34168;-65
2022/03/16 11:20:48;;;;;;;26.70;17.75;;;;;;;5.22;100.00;100983.06;5568431;32;34636;-65
2022/03/16 11:27:34;;;;;;;32.65;19.50;;;;;;;5.49;100.00;100984.50;5568010;32;33939;-65
2022/03/16 11:30:37;;;;;;;29.45;19.92;;;;;;;5.39;100.00;100978.28;5568605;32;33870;-66
2022/03/16 11:33:53;;;;;;;32.90;19.90;;;;;;;5.52;100.00;100986.88;5557770;32;35188;-67
2022/03/16 11:37:03;;;;;;;31.05;19.12;;;;;;;5.68;100.00;100982.94;5570779;32;33778;-65
2022/03/16 11:40:09;;;;;;;33.20;19.27;;;;;;;5.72;100.00;100988.78;5570556;32;34788;-66
2022/03/16 11:43:12;;;;;;;30.95;19.17;;;;;;;6.08;100.00;100979.78;5557783;32;34253;-66
2022/03/16 11:46:36;;;;;;;29.25;18.58;;;;;;;6.16;100.00;100993.16;5571251;32;34000;-65
2022/03/16 11:49:44;;;;;;;30.30;18.35;;;;;;;6.35;100.00;100984.56;5570859;32;34615;-65
2022/03/16 11:53:05;;;;;;;26.73;17.27;;;;;;;6.79;99.82;100983.53;5570895;32;33875;-66
2022/03/16 11:56:22;;;;;;;24.12;16.73;;;;;;;6.70;99.44;100990.41;5570780;32;34639;-66
2022/03/16 11:59:28;;;;;;;25.70;16.02;;;;;;;6.97;98.34;100988.06;5570924;32;33982;-64
2022/03/16 12:02:35;;;;;;;25.80;16.98;;;;;;;6.53;100.00;100989.16;5571173;32;34143;-66
2022/03/16 12:06:01;;;;;;;23.05;15.38;;;;;;;6.73;98.53;100995.41;5570775;32;34568;-66
2022/03/16 12:09:04;;;;;;;24.33;15.77;;;;;;;6.61;97.68;100996.44;5570542;32;35214;-66
2022/03/16 12:15:41;;;;;;;23.67;14.70;;;;;;;6.47;97.39;101002.87;5570644;32;34603;-66
2022/03/16 12:18:47;;;;;;;26.73;16.55;;;;;;;6.59;97.64;101016.81;5570835;32;33986;-65
2022/03/16 12:21:50;;;;;;;24.17;16.87;;;;;;;6.46;98.95;101009.09;5570589;32;33814;-66
2022/03/16 12:25:39;;;;;;;22.62;15.93;;;;;;;6.68;98.04;101010.78;5570701;32;33751;-66
2022/03/16 12:28:59;;;;;;;28.62;17.30;;;;;;;6.65;97.35;101018.94;5567822;32;34622;-65
2022/03/16 12:32:02;;;;;;;25.23;16.33;;;;;;;6.69;95.66;101011.62;5570647;32;34004;-65
2022/03/16 12:35:06;;;;;;;25.48;16.83;;;;;;;6.60;95.68;101017.66;5570598;32;34129;-65
2022/03/16 12:38:10;;;;;;;27.70;16.45;;;;;;;6.74;97.25;101027.88;5570710;32;34503;-65
2022/03/16 12:44:45;;;;;;;21.00;13.60;;;;;;;7.26;91.73;101027.00;5570486;32;33978;-65
2022/03/16 12:48:03;;;;;;;20.77;13.43;;;;;;;7.23;87.86;101032.53;5569884;32;34280;-66
2022/03/16 12:51:06;;;;;;;20.25;13.20;;;;;;;7.55;86.27;101035.88;5570179;32;34484;-66
2022/03/16 12:54:30;;;;;;;20.75;13.57;;;;;;;7.89;84.43;101039.06;5557051;32;34132;-66
2022/03/16 12:57:33;;;;;;;20.52;12.70;;;;;;;7.37;86.32;101025.09;5556651;32;34493;-66
2022/03/16 13:00:39;;;;;;;21.65;13.45;;;;;;;7.56;86.32;101036.72;5570625;32;34005;-66
2022/03/16 13:03:42;;;;;;;21.17;13.07;;;;;;;7.84;86.76;101036.03;5570263;32;34573;-65
2022/03/16 13:06:46;;;;;;;17.27;10.90;;;;;;;7.68;85.81;101027.75;5570370;32;34550;-66
2022/03/16 13:09:50;;;;;;;20.20;12.52;;;;;;;7.74;84.01;101038.62;5570161;32;33901;-65
2022/03/16 13:13:08;;;;;;;21.42;12.80;;;;;;;7.92;84.13;101037.97;5570033;32;34702;-65
2022/03/16 13:16:11;;;;;;;19.62;12.00;;;;;;;8.26;82.42;101041.94;5569858;32;34609;-65
2022/03/16 13:19:24;;;;;;;20.67;12.10;;;;;;;8.22;82.48;101049.31;5569867;32;33828;-66
2022/03/16 13:22:30;;;;;;;16.48;11.02;;;;;;;9.09;78.93;101044.06;5556652;32;34027;-66
2022/03/16 13:25:34;;;;;;;17.60;11.20;;;;;;;9.86;75.50;101049.97;5570427;32;34064;-66
2022/03/16 13:28:38;;;;;;;18.33;11.43;;;;;;;9.95;72.93;101046.41;5569833;32;35082;-66
2022/03/16 13:31:41;;;;;;;15.23;9.93;;;;;;;9.96;71.49;101056.03;5570009;32;35093;-66
2022/03/16 13:34:45;;;;;;;16.48;9.10;;;;;;;10.82;68.21;101052.00;5569953;32;34064;-66
2022/03/16 13:37:58;;;;;;;14.00;8.50;;;;;;;10.64;67.58;101061.78;5570160;32;34373;-66
2022/03/16 13:41:13;;;;;;;12.60;8.85;;;;;;;11.56;64.79;101071.94;5569882;32;34593;-66
2022/03/16 13:44:22;;;;;;;11.30;7.90;;;;;;;12.66;61.99;101071.88;5570075;32;34542;-67
2022/03/16 13:47:26;;;;;;;10.13;6.85;;;;;;;13.66;55.01;101055.50;5570178;32;34210;-66
2022/03/16 13:50:29;;;;;;;9.88;7.05;;;;;;;13.41;55.50;101073.38;5569729;32;33911;-66
2022/03/16 13:53:40;;;;;;;11.10;6.90;;;;;;;13.81;54.90;101072.47;5568893;32;33911;-66
2022/03/16 13:56:44;;;;;;;8.95;6.82;;;;;;;13.40;54.26;101077.06;5569675;32;33917;-67
2022/03/16 13:59:57;;;;;;;8.68;6.72;;;;;;;14.60;51.21;101077.63;5569717;32;34173;-67
2022/03/16 14:03:14;;;;;;;8.60;6.10;;;;;;;15.23;48.81;101073.78;5569704;32;34246;-66
2022/03/16 14:06:17;;;;;;;7.75;5.70;;;;;;;14.09;51.34;101063.00;5569700;32;34711;-66
2022/03/16 14:09:21;;;;;;;7.28;5.45;;;;;;;13.59;52.10;101070.53;5569610;32;33946;-66
2022/03/16 14:12:26;;;;;;;6.50;4.70;;;;;;;14.87;47.89;101078.09;5569416;32;33879;-66
2022/03/16 14:15:28;;;;;;;6.85;5.20;;;;;;;12.98;51.50;101083.38;5555499;32;33835;-66
2022/03/16 14:18:31;;;;;;;7.07;5.15;;;;;;;14.38;49.02;101085.59;5569895;32;33914;-66
2022/03/16 14:21:37;;;;;;;6.20;4.72;;;;;;;14.99;46.78;101090.84;5569443;32;33820;-66
2022/03/16 14:24:42;;;;;;;6.68;4.60;;;;;;;14.15;48.92;101099.66;5569425;32;35128;-66
2022/03/16 14:27:49;;;;;;;6.45;4.60;;;;;;;14.92;46.39;101095.25;5568866;32;33824;-66
2022/03/16 14:30:54;;;;;;;6.37;4.47;;;;;;;15.07;45.48;101112.16;5569542;32;34157;-65